sensor_id;sensor_type;location;lat;lon;timestamp;pressure;altitude;pressure_sealevel;temperature;humidity
45050;BME280;61798;48.048;-1.928;2022-12-18T00:02:12;101113.28;;;-5.64;100.00
45050;BME280;61798;48.048;-1.928;2022-12-18T00:05:54;101070.75;;;-5.66;100.00
45050;BME280;61798;48.048;-1.928;2022-12-18T00:09:33;101070.19;;;-5.73;100.00
45050;BME280;61798;48.048;-1.928;2022-12-18T00:12:48;101105.03;;;-5.18;100.00
45050;BME280;61798;48.048;-1.928;2022-12-18T00:16:01;101132.97;;;-4.85;100.00
45050;BME280;61798;48.048;-1.928;2022-12-18T00:19:26;101130.28;;;-5.01;100.00
45050;BME280;61798;48.048;-1.928;2022-12-18T00:26:01;101077.97;;;-5.35;100.00
45050;BME280;61798;48.048;-1.928;2022-12-18T00:28:35;101047.84;;;-5.43;100.00
45050;BME280;61798;48.048;-1.928;2022-12-18T00:31:50;101061.31;;;-5.50;100.00
45050;BME280;61798;48.048;-1.928;2022-12-18T00:34:45;101142.44;;;-5.00;100.00
45050;BME280;61798;48.048;-1.928;2022-12-18T00:38:02;101067.38;;;-5.50;100.00
45050;BME280;61798;48.048;-1.928;2022-12-18T00:41:15;101016.03;;;-5.69;100.00
45050;BME280;61798;48.048;-1.928;2022-12-18T00:44:20;101082.81;;;-4.93;100.00
45050;BME280;61798;48.048;-1.928;2022-12-18T00:47:21;101073.44;;;-5.32;100.00
45050;BME280;61798;48.048;-1.928;2022-12-18T00:54:00;101108.66;;;-4.53;100.00
45050;BME280;61798;48.048;-1.928;2022-12-18T00:57:36;101057.41;;;-4.90;100.00
45050;BME280;61798;48.048;-1.928;2022-12-18T01:01:06;101115.44;;;-4.83;100.00
45050;BME280;61798;48.048;-1.928;2022-12-18T01:05:10;101120.97;;;-4.89;100.00
45050;BME280;61798;48.048;-1.928;2022-12-18T01:08:03;101064.69;;;-5.31;100.00
45050;BME280;61798;48.048;-1.928;2022-12-18T01:14:52;101042.09;;;-5.32;100.00
45050;BME280;61798;48.048;-1.928;2022-12-18T01:17:32;101121.28;;;-4.95;100.00
45050;BME280;61798;48.048;-1.928;2022-12-18T01:19:39;101073.81;;;-5.22;100.00
45050;BME280;61798;48.048;-1.928;2022-12-18T01:21:45;101085.75;;;-5.34;100.00
45050;BME280;61798;48.048;-1.928;2022-12-18T01:23:56;101090.38;;;-5.05;100.00
45050;BME280;61798;48.048;-1.928;2022-12-18T01:26:09;101075.59;;;-5.40;100.00
45050;BME280;61798;48.048;-1.928;2022-12-18T01:28:17;101038.09;;;-5.57;100.00
45050;BME280;61798;48.048;-1.928;2022-12-18T01:30:25;101129.84;;;-5.10;100.00
45050;BME280;61798;48.048;-1.928;2022-12-18T01:32:33;101098.94;;;-5.19;100.00
45050;BME280;61798;48.048;-1.928;2022-12-18T01:34:40;101066.13;;;-5.25;100.00
45050;BME280;61798;48.048;-1.928;2022-12-18T01:36:48;101053.44;;;-5.33;100.00
45050;BME280;61798;48.048;-1.928;2022-12-18T01:38:56;101097.31;;;-5.04;100.00
45050;BME280;61798;48.048;-1.928;2022-12-18T01:41:03;101050.91;;;-5.16;100.00
45050;BME280;61798;48.048;-1.928;2022-12-18T01:43:11;101078.53;;;-4.94;100.00
45050;BME280;61798;48.048;-1.928;2022-12-18T01:45:27;101061.13;;;-5.12;100.00
45050;BME280;61798;48.048;-1.928;2022-12-18T01:47:53;101104.06;;;-4.82;100.00
45050;BME280;61798;48.048;-1.928;2022-12-18T01:50:06;101069.00;;;-4.95;100.00
45050;BME280;61798;48.048;-1.928;2022-12-18T01:52:15;101060.94;;;-5.09;100.00
45050;BME280;61798;48.048;-1.928;2022-12-18T01:54:22;101033.22;;;-5.29;100.00
45050;BME280;61798;48.048;-1.928;2022-12-18T01:56:30;101046.16;;;-5.26;100.00
45050;BME280;61798;48.048;-1.928;2022-12-18T02:00:56;101072.38;;;-4.93;100.00
45050;BME280;61798;48.048;-1.928;2022-12-18T02:03:03;101117.72;;;-4.77;100.00
45050;BME280;61798;48.048;-1.928;2022-12-18T02:05:13;101020.50;;;-5.35;100.00
45050;BME280;61798;48.048;-1.928;2022-12-18T02:07:42;101116.31;;;-4.66;100.00
45050;BME280;61798;48.048;-1.928;2022-12-18T02:10:21;101125.41;;;-4.73;100.00
45050;BME280;61798;48.048;-1.928;2022-12-18T02:12:45;101128.34;;;-4.80;100.00
45050;BME280;61798;48.048;-1.928;2022-12-18T02:17:50;101103.28;;;-4.84;100.00
45050;BME280;61798;48.048;-1.928;2022-12-18T02:20:18;101110.78;;;-4.78;100.00
45050;BME280;61798;48.048;-1.928;2022-12-18T02:23:09;101093.78;;;-5.03;100.00
45050;BME280;61798;48.048;-1.928;2022-12-18T02:26:15;101110.94;;;-4.63;100.00
45050;BME280;61798;48.048;-1.928;2022-12-18T02:28:00;101114.25;;;-4.77;100.00
45050;BME280;61798;48.048;-1.928;2022-12-18T02:30:09;101086.47;;;-4.62;100.00
45050;BME280;61798;48.048;-1.928;2022-12-18T02:32:22;101087.31;;;-4.95;100.00
45050;BME280;61798;48.048;-1.928;2022-12-18T02:34:34;101108.22;;;-4.61;100.00
45050;BME280;61798;48.048;-1.928;2022-12-18T02:36:44;101097.34;;;-4.53;100.00
45050;BME280;61798;48.048;-1.928;2022-12-18T02:38:54;101036.28;;;-5.03;100.00
45050;BME280;61798;48.048;-1.928;2022-12-18T02:41:06;101057.00;;;-4.82;100.00
45050;BME280;61798;48.048;-1.928;2022-12-18T02:43:14;101092.75;;;-4.82;100.00
45050;BME280;61798;48.048;-1.928;2022-12-18T02:45:22;101097.44;;;-4.55;100.00
45050;BME280;61798;48.048;-1.928;2022-12-18T02:47:35;101060.78;;;-4.71;100.00
45050;BME280;61798;48.048;-1.928;2022-12-18T02:57:45;101061.69;;;-4.89;100.00
45050;BME280;61798;48.048;-1.928;2022-12-18T03:00:11;101020.94;;;-4.93;100.00
45050;BME280;61798;48.048;-1.928;2022-12-18T03:02:37;101045.09;;;-4.71;100.00
45050;BME280;61798;48.048;-1.928;2022-12-18T03:04:55;101071.59;;;-4.61;100.00
45050;BME280;61798;48.048;-1.928;2022-12-18T03:07:13;101071.19;;;-4.53;100.00
45050;BME280;61798;48.048;-1.928;2022-12-18T03:09:36;101027.91;;;-4.43;100.00
45050;BME280;61798;48.048;-1.928;2022-12-18T03:12:33;101008.28;;;-4.84;100.00
45050;BME280;61798;48.048;-1.928;2022-12-18T03:14:41;101026.22;;;-4.44;100.00
45050;BME280;61798;48.048;-1.928;2022-12-18T03:16:51;100993.47;;;-4.68;100.00
45050;BME280;61798;48.048;-1.928;2022-12-18T03:19:11;100989.25;;;-4.70;100.00
45050;BME280;61798;48.048;-1.928;2022-12-18T03:21:27;101033.38;;;-4.48;100.00
45050;BME280;61798;48.048;-1.928;2022-12-18T03:23:48;101077.88;;;-4.15;100.00
45050;BME280;61798;48.048;-1.928;2022-12-18T03:26:00;101036.59;;;-4.42;100.00
45050;BME280;61798;48.048;-1.928;2022-12-18T03:28:09;101037.59;;;-4.45;100.00
45050;BME280;61798;48.048;-1.928;2022-12-18T03:30:18;101004.25;;;-4.58;100.00
45050;BME280;61798;48.048;-1.928;2022-12-18T03:32:30;100971.78;;;-4.53;100.00
45050;BME280;61798;48.048;-1.928;2022-12-18T03:34:40;101050.72;;;-3.98;100.00
45050;BME280;61798;48.048;-1.928;2022-12-18T03:36:49;101055.00;;;-4.11;100.00
45050;BME280;61798;48.048;-1.928;2022-12-18T03:38:56;101012.53;;;-4.49;100.00
45050;BME280;61798;48.048;-1.928;2022-12-18T03:48:31;101004.34;;;-4.43;100.00
45050;BME280;61798;48.048;-1.928;2022-12-18T03:50:59;101075.13;;;-3.97;100.00
45050;BME280;61798;48.048;-1.928;2022-12-18T03:55:58;101085.13;;;-3.88;100.00
45050;BME280;61798;48.048;-1.928;2022-12-18T03:58:07;101016.03;;;-4.18;100.00
45050;BME280;61798;48.048;-1.928;2022-12-18T04:00:18;101037.16;;;-4.05;100.00
45050;BME280;61798;48.048;-1.928;2022-12-18T04:02:28;101026.69;;;-4.21;100.00
45050;BME280;61798;48.048;-1.928;2022-12-18T04:04:39;101041.22;;;-4.15;100.00
45050;BME280;61798;48.048;-1.928;2022-12-18T04:06:48;100997.34;;;-4.42;100.00
45050;BME280;61798;48.048;-1.928;2022-12-18T04:08:57;101023.66;;;-4.29;100.00
45050;BME280;61798;48.048;-1.928;2022-12-18T04:11:06;101064.34;;;-4.07;100.00
45050;BME280;61798;48.048;-1.928;2022-12-18T04:13:22;101001.22;;;-4.50;100.00
45050;BME280;61798;48.048;-1.928;2022-12-18T04:15:33;101007.63;;;-4.23;100.00
45050;BME280;61798;48.048;-1.928;2022-12-18T04:17:47;100977.41;;;-4.45;100.00
45050;BME280;61798;48.048;-1.928;2022-12-18T04:19:55;101018.34;;;-4.11;100.00
45050;BME280;61798;48.048;-1.928;2022-12-18T04:22:03;100989.38;;;-4.25;100.00
45050;BME280;61798;48.048;-1.928;2022-12-18T04:24:11;100990.91;;;-4.20;100.00
45050;BME280;61798;48.048;-1.928;2022-12-18T04:26:19;100967.72;;;-4.43;100.00
45050;BME280;61798;48.048;-1.928;2022-12-18T04:28:26;101033.13;;;-4.10;100.00
45050;BME280;61798;48.048;-1.928;2022-12-18T04:30:34;101052.66;;;-3.85;100.00
45050;BME280;61798;48.048;-1.928;2022-12-18T04:32:44;101036.19;;;-3.87;100.00
45050;BME280;61798;48.048;-1.928;2022-12-18T04:34:54;101061.19;;;-3.82;100.00
45050;BME280;61798;48.048;-1.928;2022-12-18T04:37:03;101035.44;;;-3.89;100.00
45050;BME280;61798;48.048;-1.928;2022-12-18T04:39:09;100998.50;;;-4.16;100.00
45050;BME280;61798;48.048;-1.928;2022-12-18T04:41:15;101061.41;;;-3.70;100.00
45050;BME280;61798;48.048;-1.928;2022-12-18T04:43:22;101057.19;;;-3.73;100.00
45050;BME280;61798;48.048;-1.928;2022-12-18T04:45:33;101022.19;;;-3.86;100.00
45050;BME280;61798;48.048;-1.928;2022-12-18T04:47:42;101008.69;;;-3.95;100.00
45050;BME280;61798;48.048;-1.928;2022-12-18T04:49:49;101071.09;;;-3.56;100.00
45050;BME280;61798;48.048;-1.928;2022-12-18T04:52:00;101052.53;;;-3.67;100.00
45050;BME280;61798;48.048;-1.928;2022-12-18T04:54:07;101011.13;;;-3.91;100.00
45050;BME280;61798;48.048;-1.928;2022-12-18T04:56:15;101049.81;;;-3.66;100.00
45050;BME280;61798;48.048;-1.928;2022-12-18T04:58:24;101013.03;;;-3.79;100.00
45050;BME280;61798;48.048;-1.928;2022-12-18T05:00:32;101032.50;;;-3.68;100.00
45050;BME280;61798;48.048;-1.928;2022-12-18T05:02:41;101064.38;;;-3.45;100.00
45050;BME280;61798;48.048;-1.928;2022-12-18T05:04:49;101011.34;;;-3.80;100.00
45050;BME280;61798;48.048;-1.928;2022-12-18T05:06:57;101001.59;;;-3.78;100.00
45050;BME280;61798;48.048;-1.928;2022-12-18T05:09:04;101049.81;;;-3.35;100.00
45050;BME280;61798;48.048;-1.928;2022-12-18T05:11:13;101015.88;;;-3.53;100.00
45050;BME280;61798;48.048;-1.928;2022-12-18T05:13:26;101007.44;;;-3.58;100.00
45050;BME280;61798;48.048;-1.928;2022-12-18T05:15:35;100980.84;;;-3.81;100.00
45050;BME280;61798;48.048;-1.928;2022-12-18T05:17:42;101005.22;;;-3.50;100.00
45050;BME280;61798;48.048;-1.928;2022-12-18T05:19:53;100975.34;;;-3.76;100.00
45050;BME280;61798;48.048;-1.928;2022-12-18T05:22:01;100968.97;;;-3.72;100.00
45050;BME280;61798;48.048;-1.928;2022-12-18T05:24:09;100988.38;;;-3.60;100.00
45050;BME280;61798;48.048;-1.928;2022-12-18T05:26:17;100995.00;;;-3.54;100.00
45050;BME280;61798;48.048;-1.928;2022-12-18T05:28:27;100995.41;;;-3.46;100.00
45050;BME280;61798;48.048;-1.928;2022-12-18T05:30:36;100963.38;;;-3.66;100.00
45050;BME280;61798;48.048;-1.928;2022-12-18T05:32:48;100958.63;;;-3.59;100.00
45050;BME280;61798;48.048;-1.928;2022-12-18T05:35:00;100925.00;;;-3.82;100.00
45050;BME280;61798;48.048;-1.928;2022-12-18T05:37:09;100951.50;;;-3.57;100.00
45050;BME280;61798;48.048;-1.928;2022-12-18T05:39:16;100973.22;;;-3.40;100.00
45050;BME280;61798;48.048;-1.928;2022-12-18T05:41:24;100948.81;;;-3.55;100.00
45050;BME280;61798;48.048;-1.928;2022-12-18T05:43:34;101005.91;;;-3.16;100.00
45050;BME280;61798;48.048;-1.928;2022-12-18T05:45:41;100955.94;;;-3.43;100.00
45050;BME280;61798;48.048;-1.928;2022-12-18T05:47:48;100944.03;;;-3.48;100.00
45050;BME280;61798;48.048;-1.928;2022-12-18T05:49:56;100981.19;;;-3.27;100.00
45050;BME280;61798;48.048;-1.928;2022-12-18T05:52:04;100962.19;;;-3.31;100.00
45050;BME280;61798;48.048;-1.928;2022-12-18T05:54:12;100963.31;;;-3.20;100.00
45050;BME280;61798;48.048;-1.928;2022-12-18T05:56:21;100956.50;;;-3.23;100.00
45050;BME280;61798;48.048;-1.928;2022-12-18T05:58:30;100944.66;;;-3.30;100.00
45050;BME280;61798;48.048;-1.928;2022-12-18T06:00:40;100956.38;;;-3.21;100.00
45050;BME280;61798;48.048;-1.928;2022-12-18T06:02:48;100957.13;;;-3.19;100.00
45050;BME280;61798;48.048;-1.928;2022-12-18T06:04:57;100917.91;;;-3.35;100.00
45050;BME280;61798;48.048;-1.928;2022-12-18T06:07:05;100977.53;;;-2.95;100.00
45050;BME280;61798;48.048;-1.928;2022-12-18T06:09:15;100921.44;;;-3.22;100.00
45050;BME280;61798;48.048;-1.928;2022-12-18T06:11:24;100908.16;;;-3.33;100.00
45050;BME280;61798;48.048;-1.928;2022-12-18T06:13:32;100973.94;;;-2.94;100.00
45050;BME280;61798;48.048;-1.928;2022-12-18T06:15:43;100897.97;;;-3.38;100.00
45050;BME280;61798;48.048;-1.928;2022-12-18T06:17:51;100938.13;;;-3.08;100.00
45050;BME280;61798;48.048;-1.928;2022-12-18T06:19:58;100932.22;;;-3.12;100.00
45050;BME280;61798;48.048;-1.928;2022-12-18T06:22:08;100916.84;;;-3.18;100.00
45050;BME280;61798;48.048;-1.928;2022-12-18T06:24:18;100943.81;;;-3.01;100.00
45050;BME280;61798;48.048;-1.928;2022-12-18T06:26:27;100882.06;;;-3.35;100.00
45050;BME280;61798;48.048;-1.928;2022-12-18T06:28:34;100936.16;;;-3.04;100.00
45050;BME280;61798;48.048;-1.928;2022-12-18T06:30:45;100936.16;;;-3.04;100.00
45050;BME280;61798;48.048;-1.928;2022-12-18T06:32:53;100910.47;;;-3.14;100.00
45050;BME280;61798;48.048;-1.928;2022-12-18T06:35:00;100940.50;;;-2.90;100.00
45050;BME280;61798;48.048;-1.928;2022-12-18T06:37:07;100920.41;;;-3.04;100.00
45050;BME280;61798;48.048;-1.928;2022-12-18T06:39:15;100949.03;;;-2.87;100.00
45050;BME280;61798;48.048;-1.928;2022-12-18T06:41:27;100939.22;;;-2.83;100.00
45050;BME280;61798;48.048;-1.928;2022-12-18T06:43:34;100906.44;;;-3.05;100.00
45050;BME280;61798;48.048;-1.928;2022-12-18T06:45:41;100897.94;;;-3.09;100.00
45050;BME280;61798;48.048;-1.928;2022-12-18T06:47:50;100913.94;;;-2.99;100.00
45050;BME280;61798;48.048;-1.928;2022-12-18T06:49:57;100939.72;;;-2.78;100.00
45050;BME280;61798;48.048;-1.928;2022-12-18T06:52:06;100946.38;;;-2.72;100.00
45050;BME280;61798;48.048;-1.928;2022-12-18T06:54:13;100919.44;;;-2.89;100.00
45050;BME280;61798;48.048;-1.928;2022-12-18T06:56:19;100920.16;;;-2.87;100.00
45050;BME280;61798;48.048;-1.928;2022-12-18T06:58:27;100882.19;;;-3.09;100.00
45050;BME280;61798;48.048;-1.928;2022-12-18T07:00:35;100939.72;;;-2.78;100.00
45050;BME280;61798;48.048;-1.928;2022-12-18T07:02:43;100924.59;;;-2.87;100.00
45050;BME280;61798;48.048;-1.928;2022-12-18T07:04:51;100951.63;;;-2.72;100.00
45050;BME280;61798;48.048;-1.928;2022-12-18T07:06:58;100929.84;;;-2.87;100.00
45050;BME280;61798;48.048;-1.928;2022-12-18T07:09:07;100950.28;;;-2.64;100.00
45050;BME280;61798;48.048;-1.928;2022-12-18T07:11:17;100944.28;;;-2.67;100.00
45050;BME280;61798;48.048;-1.928;2022-12-18T07:13:28;100927.56;;;-2.79;100.00
45050;BME280;61798;48.048;-1.928;2022-12-18T07:15:36;100977.25;;;-2.48;100.00
45050;BME280;61798;48.048;-1.928;2022-12-18T07:17:43;100943.16;;;-2.62;100.00
45050;BME280;61798;48.048;-1.928;2022-12-18T07:19:53;100914.16;;;-2.74;100.00
45050;BME280;61798;48.048;-1.928;2022-12-18T07:22:01;100910.78;;;-2.76;100.00
45050;BME280;61798;48.048;-1.928;2022-12-18T07:24:12;100905.19;;;-2.84;100.00
45050;BME280;61798;48.048;-1.928;2022-12-18T07:26:24;100948.13;;;-2.58;100.00
45050;BME280;61798;48.048;-1.928;2022-12-18T07:28:34;100961.00;;;-2.40;100.00
45050;BME280;61798;48.048;-1.928;2022-12-18T07:30:42;100950.72;;;-2.43;100.00
45050;BME280;61798;48.048;-1.928;2022-12-18T07:32:50;100924.22;;;-2.53;100.00
45050;BME280;61798;48.048;-1.928;2022-12-18T07:34:58;100877.06;;;-2.82;100.00
45050;BME280;61798;48.048;-1.928;2022-12-18T07:37:09;100883.63;;;-2.75;100.00
45050;BME280;61798;48.048;-1.928;2022-12-18T07:39:19;100913.34;;;-2.61;100.00
45050;BME280;61798;48.048;-1.928;2022-12-18T07:41:30;100852.47;;;-2.94;100.00
45050;BME280;61798;48.048;-1.928;2022-12-18T07:43:37;100905.41;;;-2.47;100.00
45050;BME280;61798;48.048;-1.928;2022-12-18T07:45:50;100880.19;;;-2.62;100.00
45050;BME280;61798;48.048;-1.928;2022-12-18T07:48:00;100907.88;;;-2.43;100.00
45050;BME280;61798;48.048;-1.928;2022-12-18T07:50:20;100878.94;;;-2.57;100.00
45050;BME280;61798;48.048;-1.928;2022-12-18T07:52:36;100905.53;;;-2.48;100.00
45050;BME280;61798;48.048;-1.928;2022-12-18T07:55:02;100858.13;;;-2.73;100.00
45050;BME280;61798;48.048;-1.928;2022-12-18T07:57:18;100917.69;;;-2.19;100.00
45050;BME280;61798;48.048;-1.928;2022-12-18T07:59:46;100878.16;;;-2.44;100.00
45050;BME280;61798;48.048;-1.928;2022-12-18T08:01:55;100912.44;;;-2.19;100.00
45050;BME280;61798;48.048;-1.928;2022-12-18T08:45:15;100960.72;;;-1.42;100.00
45050;BME280;61798;48.048;-1.928;2022-12-18T13:23:40;100701.50;;;2.24;100.00
45050;BME280;61798;48.048;-1.928;2022-12-18T13:26:29;100644.38;;;1.92;100.00
45050;BME280;61798;48.048;-1.928;2022-12-18T13:36:30;100704.69;;;2.28;100.00
45050;BME280;61798;48.048;-1.928;2022-12-18T16:43:09;100631.41;;;4.03;100.00
45050;BME280;61798;48.048;-1.928;2022-12-18T16:45:55;100634.69;;;4.15;100.00
45050;BME280;61798;48.048;-1.928;2022-12-18T17:16:18;100538.81;;;3.91;100.00
45050;BME280;61798;48.048;-1.928;2022-12-18T17:18:53;100589.28;;;4.37;100.00
45050;BME280;61798;48.048;-1.928;2022-12-18T17:21:43;100591.78;;;4.38;100.00
45050;BME280;61798;48.048;-1.928;2022-12-18T17:24:39;100557.25;;;4.30;100.00
45050;BME280;61798;48.048;-1.928;2022-12-18T17:27:36;100508.38;;;3.77;100.00
45050;BME280;61798;48.048;-1.928;2022-12-18T17:30:26;100593.06;;;4.34;100.00
45050;BME280;61798;48.048;-1.928;2022-12-18T17:33:24;100534.22;;;3.94;100.00
45050;BME280;61798;48.048;-1.928;2022-12-18T17:36:30;100602.91;;;4.42;100.00
45050;BME280;61798;48.048;-1.928;2022-12-18T17:42:59;100534.28;;;4.02;100.00
45050;BME280;61798;48.048;-1.928;2022-12-18T17:46:46;100606.34;;;4.52;100.00
45050;BME280;61798;48.048;-1.928;2022-12-18T17:49:29;100516.31;;;3.96;100.00
45050;BME280;61798;48.048;-1.928;2022-12-18T18:17:56;100552.94;;;4.55;100.00
45050;BME280;61798;48.048;-1.928;2022-12-18T18:32:40;100611.88;;;4.86;100.00
